createdAt,value
2023-05-14T00:02:20.269Z,101964.09
2023-05-14T00:04:46.998Z,101973.69
2023-05-14T00:07:13.674Z,101968.75
2023-05-14T00:09:40.449Z,101976.28
2023-05-14T00:12:07.381Z,101976.75
2023-05-14T00:14:38.863Z,101969.25
2023-05-14T00:17:07.064Z,101966.94
2023-05-14T00:19:36.425Z,101971.59
2023-05-14T00:22:03.091Z,101972.19
2023-05-14T00:24:29.775Z,101968.19
2023-05-14T00:26:56.534Z,101951.00
2023-05-14T00:29:23.243Z,101960.00
2023-05-14T00:31:50.104Z,101960.28
2023-05-14T00:34:19.147Z,101955.53
2023-05-14T00:36:45.879Z,101949.06
2023-05-14T00:39:13.659Z,101938.09
2023-05-14T00:41:42.788Z,101952.69
2023-05-14T00:44:09.529Z,101950.06
2023-05-14T00:46:38.783Z,101947.63
2023-05-14T00:49:05.539Z,101947.06
2023-05-14T00:51:34.715Z,101941.00
2023-05-14T00:54:01.454Z,101944.19
2023-05-14T00:56:28.257Z,101934.25
2023-05-14T00:58:55.081Z,101927.78
2023-05-14T01:01:22.066Z,101937.72
2023-05-14T01:03:49.257Z,101951.16
2023-05-14T01:06:24.987Z,101948.84
2023-05-14T01:09:03.683Z,101946.38
2023-05-14T01:11:36.853Z,101941.38
2023-05-14T01:14:26.551Z,101939.06
2023-05-14T01:16:58.781Z,101947.56
2023-05-14T01:19:40.744Z,101948.88
2023-05-14T01:22:07.666Z,101928.53
2023-05-14T01:24:34.515Z,101932.69
2023-05-14T01:27:07.946Z,101861.28
2023-05-14T01:29:39.294Z,101945.69
2023-05-14T01:32:08.333Z,101936.00
2023-05-14T01:34:39.030Z,101928.66
2023-05-14T01:37:06.600Z,101935.72
2023-05-14T01:39:38.057Z,101925.22
2023-05-14T01:42:06.552Z,101920.72
2023-05-14T01:44:33.832Z,101932.84
2023-05-14T01:47:00.575Z,101921.16
2023-05-14T01:49:27.246Z,101918.41
2023-05-14T01:51:54.725Z,101916.81
2023-05-14T01:54:21.281Z,101924.31
2023-05-14T01:56:48.225Z,101933.59
2023-05-14T01:59:15.137Z,101935.56
2023-05-14T02:01:42.059Z,101926.50
2023-05-14T02:04:08.958Z,101910.31
2023-05-14T02:06:37.143Z,101926.91
2023-05-14T02:09:05.421Z,101889.63
2023-05-14T02:11:32.362Z,101902.91
2023-05-14T02:13:59.261Z,101903.81
2023-05-14T02:16:26.265Z,101919.53
2023-05-14T02:18:55.728Z,101918.81
2023-05-14T02:21:25.503Z,101865.22
2023-05-14T02:23:52.760Z,101914.75
2023-05-14T02:26:19.641Z,101876.19
2023-05-14T02:28:49.133Z,101915.31
2023-05-14T02:31:19.684Z,101912.28
2023-05-14T02:33:48.690Z,101903.16
2023-05-14T02:36:18.345Z,101894.91
2023-05-14T02:38:45.371Z,101913.25
2023-05-14T02:41:12.387Z,101905.72
2023-05-14T02:43:39.263Z,101896.63
2023-05-14T02:46:09.274Z,101911.34
2023-05-14T02:48:36.212Z,101918.84
2023-05-14T02:51:03.032Z,101905.97
2023-05-14T02:53:29.945Z,101887.81
2023-05-14T02:55:56.854Z,101904.41
2023-05-14T02:58:28.414Z,101893.56
2023-05-14T03:00:56.140Z,101898.75
2023-05-14T03:03:23.784Z,101896.16
2023-05-14T03:05:51.246Z,101889.22
2023-05-14T03:08:18.142Z,101885.91
2023-05-14T03:10:45.069Z,101896.84
2023-05-14T03:13:11.885Z,101886.31
2023-05-14T03:15:38.753Z,101883.53
2023-05-14T03:18:06.813Z,101860.56
2023-05-14T03:20:33.537Z,101903.88
2023-05-14T03:23:00.546Z,101890.88
2023-05-14T03:25:30.048Z,101895.94
2023-05-14T03:27:56.830Z,101894.34
2023-05-14T03:30:26.852Z,101900.94
2023-05-14T03:32:54.198Z,101895.00
2023-05-14T03:35:21.217Z,101775.72
2023-05-14T03:37:48.318Z,101886.94
2023-05-14T03:40:15.374Z,101892.56
2023-05-14T03:42:45.251Z,101884.16
2023-05-14T03:45:12.297Z,101894.13
2023-05-14T03:47:42.141Z,101883.84
2023-05-14T03:50:09.547Z,101861.91
2023-05-14T03:52:36.517Z,101890.03
2023-05-14T03:55:03.959Z,101861.31
2023-05-14T03:57:30.967Z,101887.72
2023-05-14T03:59:58.179Z,101880.78
2023-05-14T04:02:28.480Z,101884.25
2023-05-14T04:04:57.785Z,101893.34
2023-05-14T04:07:25.042Z,101854.03
2023-05-14T04:09:52.211Z,101818.50
2023-05-14T04:12:19.159Z,101883.38
2023-05-14T04:14:51.190Z,101878.03
2023-05-14T04:17:18.235Z,101868.22
2023-05-14T04:19:45.058Z,101874.19
2023-05-14T04:22:14.784Z,101866.25
2023-05-14T04:24:44.581Z,101868.28
2023-05-14T04:27:11.505Z,101876.22
2023-05-14T04:29:40.979Z,101877.97
2023-05-14T04:32:08.056Z,101883.03
2023-05-14T04:34:34.992Z,101879.44
2023-05-14T04:37:03.148Z,101869.34
2023-05-14T04:39:32.201Z,101884.66
2023-05-14T04:41:58.990Z,101885.69
2023-05-14T04:44:26.482Z,101880.47
2023-05-14T04:46:53.374Z,101873.72
2023-05-14T04:49:22.752Z,101881.78
2023-05-14T04:51:49.601Z,101860.63
2023-05-14T04:54:16.352Z,101868.38
2023-05-14T04:56:43.403Z,101871.38
2023-05-14T04:59:13.261Z,101867.53
2023-05-14T05:01:40.401Z,101871.94
2023-05-14T05:04:07.231Z,101875.84
2023-05-14T05:06:34.151Z,101864.75
2023-05-14T05:09:02.312Z,101870.88
2023-05-14T05:11:29.252Z,101850.03
2023-05-14T05:13:56.395Z,101876.56
2023-05-14T05:16:26.093Z,101870.47
2023-05-14T05:18:53.585Z,101868.06
2023-05-14T05:21:21.885Z,101874.63
2023-05-14T05:23:48.933Z,101789.94
2023-05-14T05:26:16.021Z,101849.25
2023-05-14T05:28:42.809Z,101878.88
2023-05-14T05:31:12.298Z,101857.66
2023-05-14T05:33:40.196Z,101877.13
2023-05-14T05:36:10.012Z,101871.78
2023-05-14T05:38:36.886Z,101880.78
2023-05-14T05:41:03.940Z,101881.09
2023-05-14T05:43:31.354Z,101899.66
2023-05-14T05:45:58.019Z,101893.47
2023-05-14T05:48:24.910Z,101889.00
2023-05-14T05:50:54.784Z,101885.00
2023-05-14T05:53:24.525Z,101882.03
2023-05-14T05:55:51.741Z,101891.00
2023-05-14T05:58:19.891Z,101881.53
2023-05-14T06:00:47.351Z,101891.31
2023-05-14T06:03:17.198Z,101886.25
2023-05-14T06:05:44.497Z,101887.97
2023-05-14T06:08:11.480Z,101900.50
2023-05-14T06:10:38.677Z,101908.66
2023-05-14T06:13:05.720Z,101911.22
2023-05-14T06:15:32.453Z,101904.19
2023-05-14T06:17:59.412Z,101913.63
2023-05-14T06:20:26.507Z,101898.50
2023-05-14T06:22:53.704Z,101902.88
2023-05-14T06:25:23.029Z,101908.38
2023-05-14T06:27:49.749Z,101923.41
2023-05-14T06:30:16.407Z,101917.41
2023-05-14T06:32:43.052Z,101911.47
2023-05-14T06:35:12.760Z,101919.13
2023-05-14T06:37:39.453Z,101909.88
2023-05-14T06:40:06.686Z,101914.00
2023-05-14T06:42:33.338Z,101897.72
2023-05-14T06:44:59.953Z,101827.59
2023-05-14T06:47:28.893Z,101897.06
2023-05-14T06:49:58.685Z,101889.97
2023-05-14T06:52:26.387Z,101890.81
2023-05-14T06:54:53.114Z,101885.91
2023-05-14T06:57:19.654Z,101893.47
2023-05-14T06:59:46.255Z,101892.31
2023-05-14T07:02:12.832Z,101896.84
2023-05-14T07:04:39.486Z,101897.25
2023-05-14T07:07:10.605Z,101897.19
2023-05-14T07:09:37.347Z,101902.44
2023-05-14T07:12:04.270Z,101892.34
2023-05-14T07:14:30.876Z,101899.00
2023-05-14T07:17:00.614Z,101905.97
2023-05-14T07:19:30.212Z,101906.00
2023-05-14T07:21:59.331Z,101906.22
2023-05-14T07:24:25.978Z,101913.13
2023-05-14T07:26:57.208Z,101905.69
2023-05-14T07:29:25.296Z,101910.44
2023-05-14T07:31:52.157Z,101846.91
2023-05-14T07:34:22.241Z,101904.78
2023-05-14T07:36:51.110Z,101904.13
2023-05-14T07:39:17.838Z,101901.56
2023-05-14T07:41:44.456Z,101900.78
2023-05-14T07:44:11.019Z,101879.63
2023-05-14T07:46:37.683Z,101893.72
2023-05-14T07:49:06.596Z,101898.41
2023-05-14T07:51:33.539Z,101888.91
2023-05-14T07:54:01.074Z,101883.34
2023-05-14T07:56:30.616Z,101867.31
2023-05-14T07:58:57.293Z,101876.06
2023-05-14T08:01:23.866Z,101871.94
2023-05-14T08:03:53.026Z,101876.66
2023-05-14T08:06:22.878Z,101868.72
2023-05-14T08:08:49.613Z,101883.03
2023-05-14T08:11:18.718Z,101874.41
2023-05-14T08:13:45.500Z,101864.78
2023-05-14T08:16:14.319Z,101868.03
2023-05-14T08:18:41.136Z,101871.25
2023-05-14T08:21:10.297Z,101861.31
2023-05-14T08:23:37.185Z,101863.00
2023-05-14T08:26:03.827Z,101871.47
2023-05-14T08:28:30.864Z,101869.06
2023-05-14T08:30:59.841Z,101863.78
2023-05-14T08:33:26.478Z,101880.28
2023-05-14T08:35:53.915Z,101859.25
2023-05-14T08:38:20.799Z,101878.38
2023-05-14T08:40:50.212Z,101870.97
2023-05-14T08:43:20.927Z,101874.09
2023-05-14T08:45:53.579Z,101872.78
2023-05-14T08:48:23.006Z,101859.09
2023-05-14T08:50:49.799Z,101861.84
2023-05-14T08:53:16.408Z,101863.53
2023-05-14T08:55:44.299Z,101863.78
2023-05-14T08:58:10.962Z,101869.56
2023-05-14T09:00:38.070Z,101861.88
2023-05-14T09:03:08.106Z,101858.41
2023-05-14T09:05:35.321Z,101846.56
2023-05-14T09:08:01.922Z,101861.63
2023-05-14T09:10:31.023Z,101862.34
2023-05-14T09:12:57.654Z,101849.03
2023-05-14T09:15:27.750Z,101846.41
2023-05-14T09:17:54.830Z,101850.69
2023-05-14T09:20:25.139Z,101849.59
2023-05-14T09:22:54.945Z,101849.84
2023-05-14T09:25:27.973Z,101851.59
2023-05-14T09:27:57.330Z,101853.88
2023-05-14T09:30:27.027Z,101842.38
2023-05-14T09:32:55.151Z,101841.97
2023-05-14T09:35:24.228Z,101836.38
2023-05-14T09:37:54.104Z,101835.59
2023-05-14T09:40:23.638Z,101833.69
2023-05-14T09:42:51.009Z,101833.53
2023-05-14T09:45:17.707Z,101801.63
2023-05-14T09:47:45.220Z,101763.94
2023-05-14T09:50:12.331Z,101828.47
2023-05-14T09:52:44.839Z,101815.78
2023-05-14T09:55:14.319Z,101824.50
2023-05-14T09:57:41.140Z,101812.88
2023-05-14T10:00:09.229Z,101818.91
2023-05-14T10:02:38.058Z,101824.75
2023-05-14T10:05:06.853Z,101823.34
2023-05-14T10:07:50.335Z,101815.22
2023-05-14T10:10:19.981Z,101814.44
2023-05-14T10:12:57.245Z,101820.13
2023-05-14T10:15:49.328Z,101814.94
2023-05-14T10:18:24.811Z,101810.78
2023-05-14T10:21:06.408Z,101809.00
2023-05-14T10:23:34.640Z,101812.16
2023-05-14T10:26:01.793Z,101801.25
2023-05-14T10:30:55.244Z,101804.16
2023-05-14T10:36:00.840Z,101805.53
2023-05-14T10:38:33.887Z,101799.78
2023-05-14T10:41:11.946Z,101785.53
2023-05-14T10:43:40.344Z,101784.75
2023-05-14T10:46:08.519Z,101789.28
2023-05-14T10:48:37.727Z,101785.00
2023-05-14T10:51:08.947Z,101782.63
2023-05-14T10:53:40.807Z,101786.50
2023-05-14T10:56:12.858Z,101792.91
2023-05-14T10:58:46.759Z,101789.06
2023-05-14T11:01:14.189Z,101765.91
2023-05-14T11:03:46.340Z,101777.69
2023-05-14T11:06:15.035Z,101773.66
2023-05-14T11:08:41.997Z,101754.81
2023-05-14T11:11:09.981Z,101771.94
2023-05-14T11:13:38.858Z,101769.84
2023-05-14T11:16:21.150Z,101768.38
2023-05-14T11:18:53.534Z,101768.63
2023-05-14T11:21:20.315Z,101761.41
2023-05-14T11:23:47.182Z,101677.03
2023-05-14T11:26:13.855Z,101756.25
2023-05-14T11:28:42.242Z,101749.38
2023-05-14T11:31:11.423Z,101741.81
2023-05-14T11:33:38.200Z,101747.84
2023-05-14T11:36:05.377Z,101744.66
2023-05-14T11:38:32.059Z,101747.66
2023-05-14T11:40:59.607Z,101744.59
2023-05-14T11:43:29.696Z,101658.97
2023-05-14T11:45:56.811Z,101744.22
2023-05-14T11:48:24.299Z,101738.84
2023-05-14T11:50:52.822Z,101731.28
2023-05-14T11:53:29.921Z,101734.56
2023-05-14T11:55:58.119Z,101729.91
2023-05-14T11:58:24.937Z,101727.72
2023-05-14T12:00:55.859Z,101722.22
2023-05-14T12:03:26.631Z,101726.59
2023-05-14T12:06:00.238Z,101713.88
2023-05-14T12:08:31.291Z,101716.63
2023-05-14T12:11:01.853Z,101695.66
2023-05-14T12:13:30.706Z,101661.50
2023-05-14T12:15:59.328Z,101704.88
2023-05-14T12:18:28.345Z,101711.53
2023-05-14T12:20:55.984Z,101706.91
2023-05-14T12:23:30.749Z,101700.63
2023-05-14T12:26:08.808Z,101708.97
2023-05-14T12:28:38.690Z,101697.03
2023-05-14T12:31:05.824Z,101692.72
2023-05-14T12:33:34.983Z,101690.69
2023-05-14T12:36:20.746Z,101690.38
2023-05-14T12:38:49.484Z,101694.75
2023-05-14T12:41:18.702Z,101690.63
2023-05-14T12:43:48.658Z,101674.56
2023-05-14T12:46:16.445Z,101681.16
2023-05-14T12:48:43.031Z,101680.66
2023-05-14T12:51:12.624Z,101662.00
2023-05-14T12:53:39.178Z,101676.47
2023-05-14T12:56:06.665Z,101673.25
2023-05-14T12:58:33.664Z,101672.34
2023-05-14T13:01:00.450Z,101672.19
2023-05-14T13:03:27.400Z,101655.09
2023-05-14T13:05:54.559Z,101676.03
2023-05-14T13:08:27.433Z,101664.00
2023-05-14T13:10:54.773Z,101652.94
2023-05-14T13:13:21.810Z,101661.88
2023-05-14T13:15:48.735Z,101662.72
2023-05-14T13:18:16.670Z,101649.19
2023-05-14T13:20:43.511Z,101662.91
2023-05-14T13:23:10.087Z,101655.59
2023-05-14T13:25:36.670Z,101653.56
2023-05-14T13:28:03.512Z,101654.19
2023-05-14T13:30:30.287Z,101650.16
2023-05-14T13:32:59.271Z,101654.25
2023-05-14T13:35:26.193Z,101645.09
2023-05-14T13:37:52.927Z,101657.25
2023-05-14T13:40:19.619Z,101651.53
2023-05-14T13:42:48.586Z,101645.69
2023-05-14T13:45:15.176Z,101638.78
2023-05-14T13:47:41.757Z,101634.66
2023-05-14T13:50:08.863Z,101627.22
2023-05-14T13:52:39.067Z,101620.13
2023-05-14T13:55:06.345Z,101634.75
2023-05-14T13:57:32.935Z,101633.91
2023-05-14T13:59:59.669Z,101630.66
2023-05-14T14:02:26.284Z,101622.88
2023-05-14T14:04:52.905Z,101629.38
2023-05-14T14:07:19.661Z,101626.38
2023-05-14T14:09:46.250Z,101612.22
2023-05-14T14:12:12.910Z,101614.47
2023-05-14T14:14:39.473Z,101613.81
2023-05-14T14:17:09.086Z,101604.63
2023-05-14T14:19:40.883Z,101602.06
2023-05-14T14:22:07.517Z,101608.59
2023-05-14T14:24:34.202Z,101610.38
2023-05-14T14:27:03.044Z,101601.47
2023-05-14T14:29:31.125Z,101608.94
2023-05-14T14:31:57.808Z,101604.84
2023-05-14T14:34:24.564Z,101615.09
2023-05-14T14:36:51.194Z,101611.56
2023-05-14T14:39:17.745Z,101618.84
2023-05-14T14:41:44.658Z,101606.72
2023-05-14T14:44:13.520Z,101611.03
2023-05-14T14:46:43.010Z,101607.13
2023-05-14T14:49:09.849Z,101599.50
2023-05-14T14:51:36.538Z,101611.28
2023-05-14T14:54:04.993Z,101609.63
2023-05-14T14:56:34.385Z,101597.28
2023-05-14T14:59:01.656Z,101606.28
2023-05-14T15:01:31.142Z,101606.34
2023-05-14T15:03:57.805Z,101604.44
2023-05-14T15:06:24.408Z,101594.00
2023-05-14T15:08:53.222Z,101602.66
2023-05-14T15:11:19.952Z,101587.19
2023-05-14T15:13:46.562Z,101595.44
2023-05-14T15:16:13.859Z,101591.38
2023-05-14T15:18:40.457Z,101593.72
2023-05-14T15:21:07.092Z,101595.44
2023-05-14T15:23:33.774Z,101593.47
2023-05-14T15:26:00.708Z,101594.72
2023-05-14T15:28:27.287Z,101590.03
2023-05-14T15:30:56.333Z,101585.81
2023-05-14T15:33:23.730Z,101585.66
2023-05-14T15:35:50.384Z,101575.28
2023-05-14T15:38:16.982Z,101571.59
2023-05-14T15:40:43.778Z,101574.09
2023-05-14T15:43:10.440Z,101578.38
2023-05-14T15:45:41.752Z,101572.00
2023-05-14T15:48:08.436Z,101582.13
2023-05-14T15:50:35.197Z,101569.69
2023-05-14T15:53:01.888Z,101575.84
2023-05-14T15:55:30.967Z,101572.25
2023-05-14T15:57:57.642Z,101562.63
2023-05-14T16:00:27.063Z,101561.00
2023-05-14T16:02:53.879Z,101565.06
2023-05-14T16:05:20.597Z,101570.72
2023-05-14T16:07:47.226Z,101569.56
2023-05-14T16:10:13.868Z,101564.28
2023-05-14T16:12:42.692Z,101571.34
2023-05-14T16:15:12.378Z,101568.97
2023-05-14T16:17:39.070Z,101565.16
2023-05-14T16:20:06.080Z,101558.13
2023-05-14T16:22:34.665Z,101570.56
2023-05-14T16:25:03.257Z,101567.84
2023-05-14T16:27:30.817Z,101571.06
2023-05-14T16:29:57.621Z,101576.63
2023-05-14T16:32:25.294Z,101571.28
2023-05-14T16:34:56.468Z,101569.56
2023-05-14T16:37:23.466Z,101562.06
2023-05-14T16:39:50.159Z,101569.56
2023-05-14T16:42:16.821Z,101578.75
2023-05-14T16:44:43.484Z,101589.00
2023-05-14T16:47:13.054Z,101588.38
2023-05-14T16:49:41.947Z,101580.88
2023-05-14T16:52:13.287Z,101586.84
2023-05-14T16:54:40.252Z,101590.91
2023-05-14T16:57:06.818Z,101540.34
2023-05-14T16:59:36.350Z,101594.75
2023-05-14T17:02:03.267Z,101585.69
2023-05-14T17:04:30.527Z,101591.47
2023-05-14T17:06:57.452Z,101601.47
2023-05-14T17:09:26.310Z,101571.03
2023-05-14T17:11:54.936Z,101593.31
2023-05-14T17:14:21.817Z,101594.34
2023-05-14T17:16:48.881Z,101598.38
2023-05-14T17:19:15.553Z,101584.44
2023-05-14T17:21:42.244Z,101586.06
2023-05-14T17:24:08.861Z,101598.44
2023-05-14T17:26:35.423Z,101602.00
2023-05-14T17:29:02.253Z,101594.63
2023-05-14T17:31:31.543Z,101606.94
2023-05-14T17:33:58.766Z,101604.28
2023-05-14T17:36:25.948Z,101607.44
2023-05-14T17:38:52.655Z,101595.00
2023-05-14T17:41:19.355Z,101608.88
2023-05-14T17:43:48.294Z,101602.59
2023-05-14T17:46:15.012Z,101595.25
2023-05-14T17:48:42.210Z,101606.59
2023-05-14T17:51:11.020Z,101610.56
2023-05-14T17:53:38.224Z,101614.72
2023-05-14T17:56:08.209Z,101624.78
2023-05-14T17:58:36.234Z,101630.63
2023-05-14T18:01:03.581Z,101626.28
2023-05-14T18:03:30.543Z,101620.53
2023-05-14T18:06:01.154Z,101612.72
2023-05-14T18:08:32.613Z,101621.69
2023-05-14T18:11:01.675Z,101625.72
2023-05-14T18:13:28.377Z,101625.13
2023-05-14T18:15:56.508Z,101610.44
2023-05-14T18:18:24.183Z,101618.44
2023-05-14T18:20:51.979Z,101621.59
2023-05-14T18:23:21.286Z,101615.72
2023-05-14T18:25:50.486Z,101625.75
2023-05-14T18:28:21.410Z,101627.06
2023-05-14T18:30:49.334Z,101624.56
2023-05-14T18:33:18.498Z,101613.25
2023-05-14T18:35:45.274Z,101616.75
2023-05-14T18:38:14.500Z,101615.78
2023-05-14T18:40:41.157Z,101633.22
2023-05-14T18:43:07.718Z,101636.34
2023-05-14T18:45:34.331Z,101634.53
2023-05-14T18:48:01.030Z,101639.03
2023-05-14T18:50:30.842Z,101626.91
2023-05-14T18:52:59.688Z,101622.81
2023-05-14T18:55:26.846Z,101647.97
2023-05-14T18:57:53.802Z,101655.47
2023-05-14T19:00:20.636Z,101646.69
2023-05-14T19:02:49.919Z,101645.72
2023-05-14T19:05:16.717Z,101647.66
2023-05-14T19:07:43.893Z,101655.06
2023-05-14T19:10:11.015Z,101651.09
2023-05-14T19:12:37.797Z,101647.31
2023-05-14T19:15:05.701Z,101648.06
2023-05-14T19:17:32.872Z,101646.00
2023-05-14T19:19:59.643Z,101651.19
2023-05-14T19:22:28.808Z,101651.19
2023-05-14T19:24:55.379Z,101650.50
2023-05-14T19:27:24.290Z,101642.59
2023-05-14T19:29:53.158Z,101637.28
2023-05-14T19:32:24.635Z,101650.72
2023-05-14T19:34:51.829Z,101640.91
2023-05-14T19:37:19.033Z,101641.47
2023-05-14T19:39:45.975Z,101655.59
2023-05-14T19:42:13.488Z,101650.94
2023-05-14T19:44:40.564Z,101649.53
2023-05-14T19:47:08.120Z,101655.22
2023-05-14T19:49:36.668Z,101636.78
2023-05-14T19:52:03.859Z,101647.31
2023-05-14T19:54:36.596Z,101631.78
2023-05-14T19:57:03.885Z,101649.69
2023-05-14T19:59:33.454Z,101636.41
2023-05-14T20:02:00.642Z,101654.34
2023-05-14T20:04:28.743Z,101651.25
2023-05-14T20:06:58.800Z,101652.09
2023-05-14T20:09:29.204Z,101625.88
2023-05-14T20:11:58.535Z,101659.66
2023-05-14T20:14:27.921Z,101647.41
2023-05-14T20:16:55.072Z,101658.78
2023-05-14T20:19:22.515Z,101667.03
2023-05-14T20:21:51.842Z,101660.50
2023-05-14T20:24:18.699Z,101666.00
2023-05-14T20:26:45.663Z,101665.63
2023-05-14T20:29:14.658Z,101659.06
2023-05-14T20:31:41.694Z,101667.66
2023-05-14T20:34:10.955Z,101663.53
2023-05-14T20:36:38.260Z,101648.00
2023-05-14T20:39:08.032Z,101665.03
2023-05-14T20:41:34.877Z,101662.78
2023-05-14T20:44:01.896Z,101665.19
2023-05-14T20:46:28.976Z,101666.88
2023-05-14T20:48:57.880Z,101595.81
2023-05-14T20:51:24.761Z,101671.63
2023-05-14T20:53:51.731Z,101660.03
2023-05-14T20:56:21.531Z,101638.47
2023-05-14T20:58:48.440Z,101659.13
2023-05-14T21:01:20.075Z,101663.75
2023-05-14T21:03:47.447Z,101657.03
2023-05-14T21:06:14.717Z,101653.19
2023-05-14T21:08:41.741Z,101648.06
2023-05-14T21:11:08.685Z,101645.06
2023-05-14T21:13:35.816Z,101645.22
2023-05-14T21:16:03.127Z,101658.81
2023-05-14T21:18:33.118Z,101658.44
2023-05-14T21:21:00.307Z,101649.81
2023-05-14T21:23:29.303Z,101658.53
2023-05-14T21:25:56.575Z,101660.13
2023-05-14T21:28:23.488Z,101653.03
2023-05-14T21:30:50.679Z,101654.41
2023-05-14T21:33:18.088Z,101640.78
2023-05-14T21:35:46.427Z,101640.38
2023-05-14T21:38:15.504Z,101650.34
2023-05-14T21:40:42.658Z,101649.81
2023-05-14T21:43:09.727Z,101647.53
2023-05-14T21:45:36.783Z,101644.94
2023-05-14T21:48:04.215Z,101637.19
2023-05-14T21:50:31.285Z,101627.69
2023-05-14T21:52:58.263Z,101633.91
2023-05-14T21:55:27.206Z,101615.22
2023-05-14T21:57:57.326Z,101635.88
2023-05-14T22:00:24.283Z,101622.94
2023-05-14T22:02:52.858Z,101588.16
2023-05-14T22:05:23.693Z,101636.28
2023-05-14T22:07:50.995Z,101640.34
2023-05-14T22:10:18.781Z,101632.25
2023-05-14T22:12:50.974Z,101621.34
2023-05-14T22:15:20.366Z,101626.81
2023-05-14T22:17:49.806Z,101623.16
2023-05-14T22:20:16.885Z,101641.00
2023-05-14T22:22:43.842Z,101620.72
2023-05-14T22:25:11.350Z,101623.06
2023-05-14T22:27:38.278Z,101633.88
2023-05-14T22:30:06.226Z,101628.16
2023-05-14T22:32:33.332Z,101630.03
2023-05-14T22:35:00.571Z,101629.63
2023-05-14T22:37:27.411Z,101625.94
2023-05-14T22:39:54.380Z,101618.72
2023-05-14T22:42:21.558Z,101614.88
2023-05-14T22:44:51.258Z,101624.22
2023-05-14T22:47:18.518Z,101617.13
2023-05-14T22:49:45.578Z,101593.00
2023-05-14T22:52:16.314Z,101597.16
2023-05-14T22:54:43.375Z,101593.41
2023-05-14T22:57:11.378Z,101566.25
2023-05-14T22:59:39.641Z,101595.75
2023-05-14T23:02:13.541Z,101589.59
2023-05-14T23:04:43.101Z,101605.97
2023-05-14T23:07:10.412Z,101585.44
2023-05-14T23:09:37.686Z,101537.13
2023-05-14T23:12:05.017Z,101595.47
2023-05-14T23:14:34.675Z,101600.09
2023-05-14T23:17:04.323Z,101573.34
2023-05-14T23:19:31.552Z,101603.59
2023-05-14T23:21:59.649Z,101593.25
2023-05-14T23:24:26.866Z,101585.81
2023-05-14T23:26:56.641Z,101601.66
2023-05-14T23:29:23.536Z,101585.56
2023-05-14T23:31:53.123Z,101590.16
2023-05-14T23:34:22.087Z,101599.25
2023-05-14T23:36:52.081Z,101580.72
2023-05-14T23:39:19.370Z,101595.22
2023-05-14T23:41:48.722Z,101596.22
2023-05-14T23:44:15.667Z,101584.72
2023-05-14T23:46:42.632Z,101583.31
2023-05-14T23:49:12.761Z,101463.34
2023-05-14T23:51:40.060Z,101570.50
2023-05-14T23:54:07.095Z,101585.94
2023-05-14T23:56:36.551Z,101536.22
2023-05-14T23:59:03.812Z,101563.13
